sensor_id;sensor_type;location;lat;lon;timestamp;pressure;altitude;pressure_sealevel;temperature;humidity
77897;BME280;67092;64.282;21.056;2023-05-18T00:02:02;100169.96;;;21.69;25.52
77897;BME280;67092;64.282;21.056;2023-05-18T00:04:26;100175.57;;;21.73;25.25
77897;BME280;67092;64.282;21.056;2023-05-18T00:06:52;100181.38;;;21.83;25.38
77897;BME280;67092;64.282;21.056;2023-05-18T00:09:17;100181.39;;;21.98;25.25
77897;BME280;67092;64.282;21.056;2023-05-18T00:11:43;100188.27;;;21.74;25.45
77897;BME280;67092;64.282;21.056;2023-05-18T00:14:09;100194.99;;;21.53;25.62
77897;BME280;67092;64.282;21.056;2023-05-18T00:16:34;100197.78;;;21.46;25.70
77897;BME280;67092;64.282;21.056;2023-05-18T00:19:00;100203.19;;;21.75;25.40
77897;BME280;67092;64.282;21.056;2023-05-18T00:21:25;100205.83;;;21.38;25.81
77897;BME280;67092;64.282;21.056;2023-05-18T00:23:51;100212.02;;;21.41;25.81
77897;BME280;67092;64.282;21.056;2023-05-18T00:26:16;100212.20;;;21.23;25.97
77897;BME280;67092;64.282;21.056;2023-05-18T00:28:42;100220.25;;;21.44;25.81
77897;BME280;67092;64.282;21.056;2023-05-18T00:31:08;100225.80;;;21.50;25.72
77897;BME280;67092;64.282;21.056;2023-05-18T00:33:33;100229.46;;;21.64;25.86
77897;BME280;67092;64.282;21.056;2023-05-18T00:35:59;100229.50;;;21.71;25.73
77897;BME280;67092;64.282;21.056;2023-05-18T00:38:24;100240.32;;;21.62;25.59
77897;BME280;67092;64.282;21.056;2023-05-18T00:40:50;100244.62;;;21.88;25.60
77897;BME280;67092;64.282;21.056;2023-05-18T00:43:16;100248.30;;;21.53;25.67
77897;BME280;67092;64.282;21.056;2023-05-18T00:45:41;100260.72;;;21.18;26.04
77897;BME280;67092;64.282;21.056;2023-05-18T00:48:07;100264.26;;;20.89;26.08
77897;BME280;67092;64.282;21.056;2023-05-18T00:50:32;100270.53;;;21.33;26.12
77897;BME280;67092;64.282;21.056;2023-05-18T00:52:58;100273.73;;;21.26;26.16
77897;BME280;67092;64.282;21.056;2023-05-18T00:55:24;100278.66;;;20.70;26.47
77897;BME280;67092;64.282;21.056;2023-05-18T00:57:49;100279.80;;;21.19;26.22
77897;BME280;67092;64.282;21.056;2023-05-18T01:00:15;100293.90;;;21.16;26.22
77897;BME280;67092;64.282;21.056;2023-05-18T01:02:41;100295.76;;;21.34;25.84
77897;BME280;67092;64.282;21.056;2023-05-18T01:05:07;100301.37;;;20.36;26.29
77897;BME280;67092;64.282;21.056;2023-05-18T01:07:32;100308.05;;;21.15;26.02
77897;BME280;67092;64.282;21.056;2023-05-18T01:09:57;100310.54;;;21.26;25.80
77897;BME280;67092;64.282;21.056;2023-05-18T01:12:28;100318.10;;;21.87;25.46
77897;BME280;67092;64.282;21.056;2023-05-18T01:14:53;100326.52;;;21.21;25.88
77897;BME280;67092;64.282;21.056;2023-05-18T01:17:22;100334.69;;;21.13;26.03
77897;BME280;67092;64.282;21.056;2023-05-18T01:22:15;100343.29;;;21.06;26.09
77897;BME280;67092;64.282;21.056;2023-05-18T01:24:36;100350.73;;;21.17;25.98
77897;BME280;67092;64.282;21.056;2023-05-18T01:26:59;100357.96;;;21.36;25.78
77897;BME280;67092;64.282;21.056;2023-05-18T01:29:24;100364.51;;;21.09;26.08
77897;BME280;67092;64.282;21.056;2023-05-18T01:31:48;100371.51;;;21.34;25.83
77897;BME280;67092;64.282;21.056;2023-05-18T01:34:13;100377.58;;;20.88;26.32
77897;BME280;67092;64.282;21.056;2023-05-18T01:36:39;100379.76;;;21.06;26.43
77897;BME280;67092;64.282;21.056;2023-05-18T01:39:04;100389.43;;;21.26;26.06
77897;BME280;67092;64.282;21.056;2023-05-18T01:41:35;100392.61;;;21.35;26.18
77897;BME280;67092;64.282;21.056;2023-05-18T01:44:07;100394.14;;;20.89;26.41
77897;BME280;67092;64.282;21.056;2023-05-18T01:46:31;100396.69;;;21.36;25.98
77897;BME280;67092;64.282;21.056;2023-05-18T01:48:52;100405.55;;;21.17;26.14
77897;BME280;67092;64.282;21.056;2023-05-18T01:51:13;100411.23;;;21.05;26.33
77897;BME280;67092;64.282;21.056;2023-05-18T01:53:44;100414.78;;;20.99;26.36
77897;BME280;67092;64.282;21.056;2023-05-18T01:56:06;100418.50;;;21.02;26.75
77897;BME280;67092;64.282;21.056;2023-05-18T01:58:29;100424.27;;;20.93;26.45
77897;BME280;67092;64.282;21.056;2023-05-18T02:00:55;100431.71;;;20.52;26.82
77897;BME280;67092;64.282;21.056;2023-05-18T02:03:21;100432.99;;;20.73;26.65
77897;BME280;67092;64.282;21.056;2023-05-18T02:05:46;100438.34;;;21.21;26.13
77897;BME280;67092;64.282;21.056;2023-05-18T02:08:11;100444.46;;;21.32;26.05
77897;BME280;67092;64.282;21.056;2023-05-18T02:10:37;100449.34;;;20.75;26.58
77897;BME280;67092;64.282;21.056;2023-05-18T02:13:03;100451.73;;;21.18;26.39
77897;BME280;67092;64.282;21.056;2023-05-18T02:15:28;100452.62;;;20.88;26.44
77897;BME280;67092;64.282;21.056;2023-05-18T02:17:54;100462.58;;;20.55;26.82
77897;BME280;67092;64.282;21.056;2023-05-18T02:20:20;100461.38;;;21.44;26.45
77897;BME280;67092;64.282;21.056;2023-05-18T02:22:45;100468.86;;;21.32;26.10
77897;BME280;67092;64.282;21.056;2023-05-18T02:25:10;100481.83;;;21.54;26.18
77897;BME280;67092;64.282;21.056;2023-05-18T02:27:36;100484.73;;;21.05;26.41
77897;BME280;67092;64.282;21.056;2023-05-18T02:30:02;100488.09;;;20.92;26.50
77897;BME280;67092;64.282;21.056;2023-05-18T02:32:27;100493.24;;;20.96;26.91
77897;BME280;67092;64.282;21.056;2023-05-18T02:34:53;100495.89;;;20.90;26.54
77897;BME280;67092;64.282;21.056;2023-05-18T02:37:18;100506.30;;;20.91;26.54
77897;BME280;67092;64.282;21.056;2023-05-18T02:39:44;100508.24;;;21.26;26.46
77897;BME280;67092;64.282;21.056;2023-05-18T02:42:10;100511.93;;;21.14;26.58
77897;BME280;67092;64.282;21.056;2023-05-18T02:44:35;100513.85;;;20.66;26.83
77897;BME280;67092;64.282;21.056;2023-05-18T02:47:01;100520.00;;;21.11;26.60
77897;BME280;67092;64.282;21.056;2023-05-18T02:49:26;100526.89;;;20.80;26.71
77897;BME280;67092;64.282;21.056;2023-05-18T02:51:52;100534.41;;;20.89;26.61
77897;BME280;67092;64.282;21.056;2023-05-18T02:54:18;100540.35;;;20.92;26.79
77897;BME280;67092;64.282;21.056;2023-05-18T02:56:43;100551.73;;;20.85;26.86
77897;BME280;67092;64.282;21.056;2023-05-18T02:59:09;100551.63;;;20.79;26.64
77897;BME280;67092;64.282;21.056;2023-05-18T03:01:34;100560.08;;;20.62;26.82
77897;BME280;67092;64.282;21.056;2023-05-18T03:04:00;100565.94;;;20.47;27.20
77897;BME280;67092;64.282;21.056;2023-05-18T03:06:26;100569.88;;;21.09;26.82
77897;BME280;67092;64.282;21.056;2023-05-18T03:08:51;100583.82;;;20.61;26.79
77897;BME280;67092;64.282;21.056;2023-05-18T03:11:17;100582.93;;;21.24;26.65
77897;BME280;67092;64.282;21.056;2023-05-18T03:13:42;100593.13;;;20.77;26.87
77897;BME280;67092;64.282;21.056;2023-05-18T03:16:08;100598.75;;;21.27;26.35
77897;BME280;67092;64.282;21.056;2023-05-18T03:18:34;100603.52;;;21.10;26.74
77897;BME280;67092;64.282;21.056;2023-05-18T03:20:59;100606.34;;;21.03;26.59
77897;BME280;67092;64.282;21.056;2023-05-18T03:23:25;100611.85;;;21.28;26.53
77897;BME280;67092;64.282;21.056;2023-05-18T03:25:50;100622.27;;;21.38;26.45
77897;BME280;67092;64.282;21.056;2023-05-18T03:28:16;100629.08;;;21.41;26.41
77897;BME280;67092;64.282;21.056;2023-05-18T03:30:42;100635.66;;;20.98;26.34
77897;BME280;67092;64.282;21.056;2023-05-18T03:33:07;100644.79;;;20.58;26.77
77897;BME280;67092;64.282;21.056;2023-05-18T03:35:33;100645.27;;;21.19;26.15
77897;BME280;67092;64.282;21.056;2023-05-18T03:37:58;100654.79;;;21.08;26.68
77897;BME280;67092;64.282;21.056;2023-05-18T03:40:24;100655.91;;;20.95;26.62
77897;BME280;67092;64.282;21.056;2023-05-18T03:42:50;100668.84;;;20.61;26.64
77897;BME280;67092;64.282;21.056;2023-05-18T03:45:16;100666.93;;;20.75;26.67
77897;BME280;67092;64.282;21.056;2023-05-18T03:47:41;100672.80;;;20.96;26.54
77897;BME280;67092;64.282;21.056;2023-05-18T03:50:07;100679.47;;;20.66;26.54
77897;BME280;67092;64.282;21.056;2023-05-18T03:52:32;100688.14;;;20.32;26.85
77897;BME280;67092;64.282;21.056;2023-05-18T03:54:58;100689.87;;;20.65;26.80
77897;BME280;67092;64.282;21.056;2023-05-18T03:57:23;100696.51;;;20.92;26.47
77897;BME280;67092;64.282;21.056;2023-05-18T03:59:49;100701.82;;;20.83;26.47
77897;BME280;67092;64.282;21.056;2023-05-18T04:02:14;100702.95;;;21.05;26.50
77897;BME280;67092;64.282;21.056;2023-05-18T04:04:40;100707.40;;;20.65;26.44
77897;BME280;67092;64.282;21.056;2023-05-18T04:07:05;100718.77;;;20.99;26.31
77897;BME280;67092;64.282;21.056;2023-05-18T04:09:32;100720.70;;;20.83;26.49
77897;BME280;67092;64.282;21.056;2023-05-18T04:11:57;100724.56;;;20.62;26.72
77897;BME280;67092;64.282;21.056;2023-05-18T04:14:22;100730.91;;;20.68;26.86
77897;BME280;67092;64.282;21.056;2023-05-18T04:16:48;100736.32;;;20.52;27.05
77897;BME280;67092;64.282;21.056;2023-05-18T04:19:13;100739.82;;;20.58;26.75
77897;BME280;67092;64.282;21.056;2023-05-18T04:21:39;100743.93;;;20.97;26.62
77897;BME280;67092;64.282;21.056;2023-05-18T04:24:06;100742.32;;;20.99;26.56
77897;BME280;67092;64.282;21.056;2023-05-18T04:26:31;100755.28;;;21.11;26.22
77897;BME280;67092;64.282;21.056;2023-05-18T04:28:56;100755.87;;;20.82;26.40
77897;BME280;67092;64.282;21.056;2023-05-18T04:31:21;100766.18;;;21.25;26.05
77897;BME280;67092;64.282;21.056;2023-05-18T04:33:47;100776.17;;;21.17;26.29
77897;BME280;67092;64.282;21.056;2023-05-18T04:36:13;100783.78;;;20.89;26.39
77897;BME280;67092;64.282;21.056;2023-05-18T04:38:38;100785.39;;;21.07;26.16
77897;BME280;67092;64.282;21.056;2023-05-18T04:41:04;100796.27;;;21.00;26.23
77897;BME280;67092;64.282;21.056;2023-05-18T04:43:29;100806.67;;;20.69;26.56
77897;BME280;67092;64.282;21.056;2023-05-18T04:45:55;100810.40;;;20.44;26.58
77897;BME280;67092;64.282;21.056;2023-05-18T04:48:21;100813.48;;;20.93;26.35
77897;BME280;67092;64.282;21.056;2023-05-18T04:50:46;100819.44;;;20.82;26.42
77897;BME280;67092;64.282;21.056;2023-05-18T04:53:12;100830.19;;;21.02;26.46
77897;BME280;67092;64.282;21.056;2023-05-18T04:55:37;100826.92;;;20.53;26.71
77897;BME280;67092;64.282;21.056;2023-05-18T04:58:03;100837.43;;;20.25;26.78
77897;BME280;67092;64.282;21.056;2023-05-18T05:00:29;100848.94;;;20.62;26.65
77897;BME280;67092;64.282;21.056;2023-05-18T05:02:55;100842.83;;;21.07;26.21
77897;BME280;67092;64.282;21.056;2023-05-18T05:05:20;100853.13;;;21.24;26.00
77897;BME280;67092;64.282;21.056;2023-05-18T05:07:45;100857.10;;;21.61;25.87
77897;BME280;67092;64.282;21.056;2023-05-18T05:10:11;100868.93;;;21.08;26.15
77897;BME280;67092;64.282;21.056;2023-05-18T05:12:37;100865.10;;;20.97;26.20
77897;BME280;67092;64.282;21.056;2023-05-18T05:15:02;100879.67;;;21.14;26.05
77897;BME280;67092;64.282;21.056;2023-05-18T05:17:28;100882.94;;;21.21;26.23
77897;BME280;67092;64.282;21.056;2023-05-18T05:19:53;100889.21;;;20.92;26.25
77897;BME280;67092;64.282;21.056;2023-05-18T05:22:19;100886.47;;;20.66;26.51
77897;BME280;67092;64.282;21.056;2023-05-18T05:24:44;100897.38;;;20.94;26.43
77897;BME280;67092;64.282;21.056;2023-05-18T05:27:10;100900.92;;;20.56;26.56
77897;BME280;67092;64.282;21.056;2023-05-18T05:29:36;100905.76;;;20.57;26.56
77897;BME280;67092;64.282;21.056;2023-05-18T05:32:01;100913.87;;;20.41;26.67
77897;BME280;67092;64.282;21.056;2023-05-18T05:34:27;100918.35;;;20.40;26.94
77897;BME280;67092;64.282;21.056;2023-05-18T05:36:52;100921.88;;;20.97;26.38
77897;BME280;67092;64.282;21.056;2023-05-18T05:39:18;100935.81;;;20.80;26.52
77897;BME280;67092;64.282;21.056;2023-05-18T05:41:43;100940.43;;;20.68;26.62
77897;BME280;67092;64.282;21.056;2023-05-18T05:44:09;100944.54;;;20.92;26.36
77897;BME280;67092;64.282;21.056;2023-05-18T05:46:34;100956.82;;;20.73;26.58
77897;BME280;67092;64.282;21.056;2023-05-18T05:49:00;100957.00;;;20.74;26.58
77897;BME280;67092;64.282;21.056;2023-05-18T05:51:26;100969.21;;;20.37;26.69
77897;BME280;67092;64.282;21.056;2023-05-18T05:53:51;100972.90;;;20.61;26.47
77897;BME280;67092;64.282;21.056;2023-05-18T05:56:17;100979.19;;;20.97;26.27
77897;BME280;67092;64.282;21.056;2023-05-18T05:58:42;100981.94;;;20.92;26.30
77897;BME280;67092;64.282;21.056;2023-05-18T06:01:08;100993.30;;;20.72;26.24
77897;BME280;67092;64.282;21.056;2023-05-18T06:03:34;101005.14;;;20.99;25.98
77897;BME280;67092;64.282;21.056;2023-05-18T06:05:59;101013.73;;;20.58;26.30
77897;BME280;67092;64.282;21.056;2023-05-18T06:08:25;101015.97;;;20.61;26.30
77897;BME280;67092;64.282;21.056;2023-05-18T06:10:50;101024.28;;;20.90;26.26
77897;BME280;67092;64.282;21.056;2023-05-18T06:13:16;101034.99;;;21.27;25.70
77897;BME280;67092;64.282;21.056;2023-05-18T06:15:41;101036.74;;;20.07;26.59
77897;BME280;67092;64.282;21.056;2023-05-18T06:18:07;101043.01;;;20.36;26.32
77897;BME280;67092;64.282;21.056;2023-05-18T06:20:33;101059.93;;;20.18;26.48
77897;BME280;67092;64.282;21.056;2023-05-18T06:22:58;101057.51;;;20.52;26.43
77897;BME280;67092;64.282;21.056;2023-05-18T06:25:24;101070.95;;;20.69;26.51
77897;BME280;67092;64.282;21.056;2023-05-18T06:27:49;101068.82;;;20.39;26.58
77897;BME280;67092;64.282;21.056;2023-05-18T06:30:15;101080.59;;;21.18;26.22
77897;BME280;67092;64.282;21.056;2023-05-18T06:32:41;101083.70;;;21.11;26.28
77897;BME280;67092;64.282;21.056;2023-05-18T06:35:07;101095.05;;;20.78;26.60
77897;BME280;67092;64.282;21.056;2023-05-18T06:37:32;101107.83;;;20.42;26.75
77897;BME280;67092;64.282;21.056;2023-05-18T06:39:57;101109.88;;;20.45;26.48
77897;BME280;67092;64.282;21.056;2023-05-18T06:42:23;101120.06;;;20.73;26.19
77897;BME280;67092;64.282;21.056;2023-05-18T06:44:48;101119.58;;;20.90;26.24
77897;BME280;67092;64.282;21.056;2023-05-18T06:47:14;101135.48;;;20.81;26.36
77897;BME280;67092;64.282;21.056;2023-05-18T06:49:40;101142.63;;;20.98;25.93
77897;BME280;67092;64.282;21.056;2023-05-18T06:52:05;101142.35;;;21.04;26.10
77897;BME280;67092;64.282;21.056;2023-05-18T06:54:31;101145.60;;;20.79;26.08
77897;BME280;67092;64.282;21.056;2023-05-18T06:56:56;101153.05;;;20.46;26.41
77897;BME280;67092;64.282;21.056;2023-05-18T06:59:22;101158.36;;;20.92;26.25
77897;BME280;67092;64.282;21.056;2023-05-18T07:01:48;101170.73;;;20.66;26.54
77897;BME280;67092;64.282;21.056;2023-05-18T07:04:13;101178.86;;;20.44;26.51
77897;BME280;67092;64.282;21.056;2023-05-18T07:06:39;101188.33;;;20.55;26.62
77897;BME280;67092;64.282;21.056;2023-05-18T07:09:05;101196.57;;;20.73;26.48
77897;BME280;67092;64.282;21.056;2023-05-18T07:11:30;101203.95;;;20.98;26.16
77897;BME280;67092;64.282;21.056;2023-05-18T07:13:55;101213.72;;;21.14;26.10
77897;BME280;67092;64.282;21.056;2023-05-18T07:16:21;101217.97;;;20.91;26.52
77897;BME280;67092;64.282;21.056;2023-05-18T07:18:47;101227.44;;;20.41;26.82
77897;BME280;67092;64.282;21.056;2023-05-18T07:21:12;101227.40;;;20.59;26.58
77897;BME280;67092;64.282;21.056;2023-05-18T07:23:38;101229.84;;;20.72;26.48
77897;BME280;67092;64.282;21.056;2023-05-18T07:26:03;101243.88;;;20.23;26.56
77897;BME280;67092;64.282;21.056;2023-05-18T07:28:29;101251.69;;;20.90;26.60
77897;BME280;67092;64.282;21.056;2023-05-18T07:30:55;101256.78;;;21.02;26.63
77897;BME280;67092;64.282;21.056;2023-05-18T07:33:20;101262.59;;;20.85;26.72
77897;BME280;67092;64.282;21.056;2023-05-18T07:35:46;101274.64;;;20.36;27.03
77897;BME280;67092;64.282;21.056;2023-05-18T07:38:11;101281.48;;;20.99;26.97
77897;BME280;67092;64.282;21.056;2023-05-18T07:40:37;101290.85;;;21.22;26.68
77897;BME280;67092;64.282;21.056;2023-05-18T07:43:03;101301.36;;;21.35;26.78
77897;BME280;67092;64.282;21.056;2023-05-18T07:45:28;101299.17;;;21.63;26.57
77897;BME280;67092;64.282;21.056;2023-05-18T07:47:54;101312.74;;;21.59;26.69
77897;BME280;67092;64.282;21.056;2023-05-18T07:50:19;101316.40;;;21.02;27.02
77897;BME280;67092;64.282;21.056;2023-05-18T07:52:45;101315.41;;;20.63;27.50
77897;BME280;67092;64.282;21.056;2023-05-18T07:55:11;101319.58;;;21.31;27.06
77897;BME280;67092;64.282;21.056;2023-05-18T07:57:36;101327.67;;;21.14;26.75
77897;BME280;67092;64.282;21.056;2023-05-18T08:00:02;101325.00;;;21.14;26.86
77897;BME280;67092;64.282;21.056;2023-05-18T08:02:27;101337.86;;;21.62;26.37
77897;BME280;67092;64.282;21.056;2023-05-18T08:04:53;101336.23;;;20.91;27.11
77897;BME280;67092;64.282;21.056;2023-05-18T08:07:19;101342.39;;;21.01;26.96
77897;BME280;67092;64.282;21.056;2023-05-18T08:09:44;101359.44;;;21.35;26.89
77897;BME280;67092;64.282;21.056;2023-05-18T08:12:10;101366.61;;;21.19;27.09
77897;BME280;67092;64.282;21.056;2023-05-18T08:14:35;101369.47;;;21.14;26.93
77897;BME280;67092;64.282;21.056;2023-05-18T08:17:02;101376.65;;;21.33;26.81
77897;BME280;67092;64.282;21.056;2023-05-18T08:19:28;101383.44;;;21.66;26.49
77897;BME280;67092;64.282;21.056;2023-05-18T08:21:52;101383.72;;;22.77;25.99
77897;BME280;67092;64.282;21.056;2023-05-18T08:24:18;101392.02;;;21.85;27.11
77897;BME280;67092;64.282;21.056;2023-05-18T08:26:43;101401.92;;;21.89;27.04
77897;BME280;67092;64.282;21.056;2023-05-18T08:29:09;101405.39;;;21.53;27.24
77897;BME280;67092;64.282;21.056;2023-05-18T08:31:35;101410.65;;;21.50;27.41
77897;BME280;67092;64.282;21.056;2023-05-18T08:34:01;101428.98;;;21.57;27.71
77897;BME280;67092;64.282;21.056;2023-05-18T08:36:26;101435.91;;;21.61;27.77
77897;BME280;67092;64.282;21.056;2023-05-18T08:38:51;101431.41;;;21.25;28.21
77897;BME280;67092;64.282;21.056;2023-05-18T08:41:20;101437.23;;;20.81;28.58
77897;BME280;67092;64.282;21.056;2023-05-18T08:43:45;101444.80;;;21.08;28.52
77897;BME280;67092;64.282;21.056;2023-05-18T08:46:15;101452.22;;;21.15;28.52
77897;BME280;67092;64.282;21.056;2023-05-18T08:48:35;101456.60;;;21.32;28.56
77897;BME280;67092;64.282;21.056;2023-05-18T08:51:01;101458.04;;;21.01;28.68
77897;BME280;67092;64.282;21.056;2023-05-18T08:53:25;101467.52;;;21.18;28.23
77897;BME280;67092;64.282;21.056;2023-05-18T08:55:53;101467.85;;;20.75;28.72
77897;BME280;67092;64.282;21.056;2023-05-18T08:58:19;101475.78;;;20.79;28.68
77897;BME280;67092;64.282;21.056;2023-05-18T09:00:42;101480.88;;;21.31;28.42
77897;BME280;67092;64.282;21.056;2023-05-18T09:03:08;101479.19;;;20.96;28.59
77897;BME280;67092;64.282;21.056;2023-05-18T09:05:33;101486.87;;;20.75;29.10
77897;BME280;67092;64.282;21.056;2023-05-18T09:07:59;101493.66;;;21.02;28.81
77897;BME280;67092;64.282;21.056;2023-05-18T09:10:25;101502.47;;;21.11;28.43
77897;BME280;67092;64.282;21.056;2023-05-18T09:12:51;101517.32;;;21.50;27.99
77897;BME280;67092;64.282;21.056;2023-05-18T09:15:16;101521.98;;;21.12;28.40
77897;BME280;67092;64.282;21.056;2023-05-18T09:17:41;101533.43;;;21.01;28.40
77897;BME280;67092;64.282;21.056;2023-05-18T09:20:08;101539.45;;;20.72;28.74
77897;BME280;67092;64.282;21.056;2023-05-18T09:22:33;101549.94;;;21.01;28.45
77897;BME280;67092;64.282;21.056;2023-05-18T09:24:58;101548.59;;;21.01;28.45
77897;BME280;67092;64.282;21.056;2023-05-18T09:27:24;101550.00;;;21.33;28.07
77897;BME280;67092;64.282;21.056;2023-05-18T09:29:51;101554.67;;;20.98;28.41
77897;BME280;67092;64.282;21.056;2023-05-18T09:32:15;101556.63;;;21.21;28.13
77897;BME280;67092;64.282;21.056;2023-05-18T09:34:41;101564.30;;;21.20;28.22
77897;BME280;67092;64.282;21.056;2023-05-18T09:37:08;101561.86;;;21.48;27.91
77897;BME280;67092;64.282;21.056;2023-05-18T09:39:32;101563.94;;;21.09;28.31
77897;BME280;67092;64.282;21.056;2023-05-18T09:41:57;101570.60;;;21.22;28.12
77897;BME280;67092;64.282;21.056;2023-05-18T09:44:30;101585.30;;;21.29;28.35
77897;BME280;67092;64.282;21.056;2023-05-18T09:46:54;101586.71;;;20.86;28.56
77897;BME280;67092;64.282;21.056;2023-05-18T09:49:20;101592.72;;;21.22;28.19
77897;BME280;67092;64.282;21.056;2023-05-18T09:51:40;101593.79;;;21.22;28.38
77897;BME280;67092;64.282;21.056;2023-05-18T09:54:06;101600.09;;;21.34;28.05
77897;BME280;67092;64.282;21.056;2023-05-18T09:56:35;101600.35;;;21.24;28.12
77897;BME280;67092;64.282;21.056;2023-05-18T09:58:57;101597.43;;;20.93;28.40
77897;BME280;67092;64.282;21.056;2023-05-18T10:01:22;101606.54;;;21.05;28.27
77897;BME280;67092;64.282;21.056;2023-05-18T10:03:48;101604.21;;;21.85;27.62
77897;BME280;67092;64.282;21.056;2023-05-18T10:06:14;101605.77;;;21.70;27.99
77897;BME280;67092;64.282;21.056;2023-05-18T10:08:39;101608.54;;;21.20;27.92
77897;BME280;67092;64.282;21.056;2023-05-18T10:11:05;101615.10;;;21.38;27.70
77897;BME280;67092;64.282;21.056;2023-05-18T10:13:32;101619.76;;;21.84;27.49
77897;BME280;67092;64.282;21.056;2023-05-18T10:15:57;101625.71;;;21.29;27.75
77897;BME280;67092;64.282;21.056;2023-05-18T10:18:23;101631.46;;;21.81;27.17
77897;BME280;67092;64.282;21.056;2023-05-18T10:20:48;101634.90;;;21.43;27.53
77897;BME280;67092;64.282;21.056;2023-05-18T10:23:13;101633.63;;;21.44;27.50
77897;BME280;67092;64.282;21.056;2023-05-18T10:25:41;101640.07;;;21.42;27.53
77897;BME280;67092;64.282;21.056;2023-05-18T10:28:06;101644.64;;;21.65;27.36
77897;BME280;67092;64.282;21.056;2023-05-18T10:30:30;101645.57;;;21.41;27.54
77897;BME280;67092;64.282;21.056;2023-05-18T10:32:56;101649.18;;;21.66;27.30
77897;BME280;67092;64.282;21.056;2023-05-18T10:35:21;101655.95;;;21.26;27.72
77897;BME280;67092;64.282;21.056;2023-05-18T10:37:46;101659.84;;;21.50;27.48
77897;BME280;67092;64.282;21.056;2023-05-18T10:40:12;101660.47;;;21.78;27.19
77897;BME280;67092;64.282;21.056;2023-05-18T10:42:39;101666.65;;;21.46;27.49
77897;BME280;67092;64.282;21.056;2023-05-18T10:45:06;101669.65;;;21.35;27.61
77897;BME280;67092;64.282;21.056;2023-05-18T10:47:29;101671.82;;;21.55;27.38
77897;BME280;67092;64.282;21.056;2023-05-18T10:49:55;101672.22;;;21.60;27.35
77897;BME280;67092;64.282;21.056;2023-05-18T10:52:20;101685.42;;;21.59;27.33
77897;BME280;67092;64.282;21.056;2023-05-18T10:54:46;101693.91;;;21.48;27.44
77897;BME280;67092;64.282;21.056;2023-05-18T10:57:14;101699.57;;;21.75;27.17
77897;BME280;67092;64.282;21.056;2023-05-18T10:59:39;101699.65;;;21.78;27.18
77897;BME280;67092;64.282;21.056;2023-05-18T11:02:07;101713.00;;;21.40;27.44
77897;BME280;67092;64.282;21.056;2023-05-18T11:04:28;101716.05;;;21.74;26.80
77897;BME280;67092;64.282;21.056;2023-05-18T11:06:56;101713.59;;;21.10;27.39
77897;BME280;67092;64.282;21.056;2023-05-18T11:09:22;101715.29;;;22.08;26.33
77897;BME280;67092;64.282;21.056;2023-05-18T11:11:51;101721.79;;;21.86;26.54
77897;BME280;67092;64.282;21.056;2023-05-18T11:14:10;101719.73;;;21.23;27.09
77897;BME280;67092;64.282;21.056;2023-05-18T11:16:36;101725.07;;;21.72;26.61
77897;BME280;67092;64.282;21.056;2023-05-18T11:19:05;101726.33;;;21.47;26.82
77897;BME280;67092;64.282;21.056;2023-05-18T11:21:30;101732.19;;;21.74;26.48
77897;BME280;67092;64.282;21.056;2023-05-18T11:24:13;101736.36;;;21.23;26.91
77897;BME280;67092;64.282;21.056;2023-05-18T11:26:18;101739.58;;;21.30;26.81
77897;BME280;67092;64.282;21.056;2023-05-18T11:28:44;101744.05;;;21.15;26.90
77897;BME280;67092;64.282;21.056;2023-05-18T11:31:16;101745.89;;;21.09;27.02
77897;BME280;67092;64.282;21.056;2023-05-18T11:33:35;101746.98;;;21.88;26.16
77897;BME280;67092;64.282;21.056;2023-05-18T11:36:03;101751.38;;;21.25;26.93
77897;BME280;67092;64.282;21.056;2023-05-18T11:40:52;101760.93;;;21.63;26.16
77897;BME280;67092;64.282;21.056;2023-05-18T11:43:20;101762.93;;;21.46;26.23
77897;BME280;67092;64.282;21.056;2023-05-18T11:45:51;101772.44;;;21.23;26.46
77897;BME280;67092;64.282;21.056;2023-05-18T11:48:10;101767.20;;;21.08;26.48
77897;BME280;67092;64.282;21.056;2023-05-18T11:50:35;101772.33;;;21.26;26.26
77897;BME280;67092;64.282;21.056;2023-05-18T11:53:00;101780.00;;;21.35;26.06
77897;BME280;67092;64.282;21.056;2023-05-18T11:57:51;101788.90;;;21.81;25.48
77897;BME280;67092;64.282;21.056;2023-05-18T12:00:19;101795.02;;;21.24;25.92
77897;BME280;67092;64.282;21.056;2023-05-18T12:02:44;101798.25;;;21.71;26.46
77897;BME280;67092;64.282;21.056;2023-05-18T12:05:14;101801.52;;;22.00;26.67
77897;BME280;67092;64.282;21.056;2023-05-18T12:07:34;101802.73;;;21.15;27.73
77897;BME280;67092;64.282;21.056;2023-05-18T12:10:00;101807.98;;;21.21;27.68
77897;BME280;67092;64.282;21.056;2023-05-18T12:12:26;101810.03;;;21.33;27.40
77897;BME280;67092;64.282;21.056;2023-05-18T12:14:54;101813.36;;;21.64;26.96
77897;BME280;67092;64.282;21.056;2023-05-18T12:17:16;101814.93;;;21.62;26.85
77897;BME280;67092;64.282;21.056;2023-05-18T12:19:43;101815.69;;;21.42;27.03
77897;BME280;67092;64.282;21.056;2023-05-18T12:22:08;101819.07;;;21.65;26.97
77897;BME280;67092;64.282;21.056;2023-05-18T12:24:33;101823.39;;;21.56;26.73
77897;BME280;67092;64.282;21.056;2023-05-18T12:26:58;101825.72;;;21.30;27.10
77897;BME280;67092;64.282;21.056;2023-05-18T12:29:24;101829.16;;;21.47;26.63
77897;BME280;67092;64.282;21.056;2023-05-18T12:31:50;101832.49;;;21.14;26.88
77897;BME280;67092;64.282;21.056;2023-05-18T12:34:15;101832.87;;;21.65;26.30
77897;BME280;67092;64.282;21.056;2023-05-18T12:36:49;101839.48;;;21.46;26.42
77897;BME280;67092;64.282;21.056;2023-05-18T12:39:06;101846.48;;;21.57;26.27